createdAt,value
2023-05-14T00:02:09.993Z,391.08
2023-05-14T00:07:40.329Z,391.39
2023-05-14T00:13:29.502Z,391.54
2023-05-14T00:19:16.625Z,391.72
2023-05-14T00:24:25.633Z,392.54
2023-05-14T00:30:14.179Z,393.22
2023-05-14T00:35:59.113Z,393.29
2023-05-14T00:41:55.316Z,393.01
2023-05-14T00:47:54.969Z,393.40
2023-05-14T00:54:22.927Z,393.17
2023-05-14T00:59:42.830Z,392.44
2023-05-14T01:04:54.036Z,392.35
2023-05-14T01:10:22.853Z,392.71
2023-05-14T01:21:41.021Z,392.45
2023-05-14T01:26:51.501Z,392.50
2023-05-14T01:32:45.118Z,392.68
2023-05-14T01:38:42.544Z,393.39
2023-05-14T01:44:40.305Z,393.41
2023-05-14T01:49:47.478Z,393.74
2023-05-14T01:55:35.117Z,393.63
2023-05-14T02:07:02.698Z,394.46
2023-05-14T02:12:50.182Z,394.80
2023-05-14T02:18:20.022Z,395.41
2023-05-14T02:24:08.482Z,395.57
2023-05-14T02:29:50.855Z,395.93
2023-05-14T02:35:36.188Z,396.04
2023-05-14T02:41:24.881Z,396.65
2023-05-14T02:47:46.536Z,396.62
2023-05-14T02:53:46.655Z,397.48
2023-05-14T02:59:30.006Z,397.66
2023-05-14T03:06:08.088Z,398.04
2023-05-14T03:12:06.573Z,397.92
2023-05-14T03:17:57.281Z,397.61
2023-05-14T03:30:35.035Z,397.76
2023-05-14T03:42:51.642Z,397.83
2023-05-14T03:48:45.930Z,398.01
2023-05-14T04:05:09.155Z,398.07
2023-05-14T04:10:53.444Z,397.86
2023-05-14T04:16:03.751Z,397.42
2023-05-14T04:21:12.619Z,397.39
2023-05-14T04:26:22.998Z,397.34
2023-05-14T04:31:29.479Z,397.27
2023-05-14T04:36:36.950Z,397.34
2023-05-14T04:41:52.600Z,397.57
2023-05-14T04:47:10.730Z,397.27
2023-05-14T04:52:40.484Z,397.61
2023-05-14T04:58:25.225Z,397.53
2023-05-14T05:03:37.797Z,397.29
2023-05-14T05:08:51.560Z,397.18
2023-05-14T05:14:02.699Z,397.21
2023-05-14T05:19:50.566Z,397.44
2023-05-14T05:25:28.322Z,397.13
2023-05-14T05:30:42.774Z,397.66
2023-05-14T05:37:52.274Z,397.30
2023-05-14T05:41:19.292Z,397.21
2023-05-14T05:47:06.848Z,396.94
2023-05-14T05:53:21.719Z,397.04
2023-05-14T05:58:24.154Z,396.62
2023-05-14T06:03:55.160Z,396.95
2023-05-14T06:09:29.317Z,397.36
2023-05-14T06:15:18.025Z,397.31
2023-05-14T06:19:57.059Z,397.15
2023-05-14T06:25:26.693Z,397.42
2023-05-14T06:30:51.711Z,397.30
2023-05-14T06:36:51.052Z,397.12
2023-05-14T06:41:49.668Z,397.32
2023-05-14T06:47:36.959Z,397.36
2023-05-14T06:52:51.847Z,397.02
2023-05-14T06:58:49.494Z,397.17
2023-05-14T07:03:51.903Z,397.57
2023-05-14T07:08:59.508Z,397.85
2023-05-14T07:14:19.504Z,398.20
2023-05-14T07:19:28.685Z,397.77
2023-05-14T07:24:35.832Z,398.39
2023-05-14T07:29:43.100Z,398.39
2023-05-14T07:34:50.622Z,398.50
2023-05-14T07:39:57.851Z,399.05
2023-05-14T07:45:05.045Z,399.20
2023-05-14T07:50:12.264Z,399.13
2023-05-14T07:55:19.550Z,399.32
2023-05-14T08:00:26.962Z,399.38
2023-05-14T08:05:34.055Z,399.49
2023-05-14T08:10:42.137Z,400.28
2023-05-14T08:15:49.504Z,400.09
2023-05-14T08:20:57.146Z,400.26
2023-05-14T08:26:04.538Z,401.22
2023-05-14T08:31:12.031Z,401.54
2023-05-14T08:36:19.440Z,401.90
2023-05-14T08:41:26.736Z,402.14
2023-05-14T08:46:33.938Z,402.26
2023-05-14T08:51:41.338Z,402.50
2023-05-14T08:56:52.014Z,402.62
2023-05-14T09:01:56.645Z,403.13
2023-05-14T09:07:09.941Z,403.55
2023-05-14T09:12:19.956Z,403.32
2023-05-14T09:17:27.511Z,403.39
2023-05-14T09:22:34.807Z,404.34
2023-05-14T09:27:41.999Z,404.12
2023-05-14T09:32:49.318Z,404.18
2023-05-14T09:37:56.704Z,404.46
2023-05-14T09:43:03.971Z,404.78
2023-05-14T09:48:11.340Z,404.62
2023-05-14T09:53:18.526Z,404.76
2023-05-14T09:58:25.706Z,405.24
2023-05-14T10:03:33.108Z,405.78
2023-05-14T10:08:40.448Z,405.63
2023-05-14T10:13:47.710Z,405.85
2023-05-14T10:18:57.137Z,406.06
2023-05-14T10:24:02.248Z,406.75
2023-05-14T10:29:09.471Z,406.55
2023-05-14T10:34:17.065Z,406.92
2023-05-14T10:39:28.809Z,406.53
2023-05-14T10:44:36.244Z,406.72
2023-05-14T10:49:47.156Z,406.87
2023-05-14T10:54:52.718Z,407.46
2023-05-14T11:00:06.139Z,408.01
2023-05-14T11:05:13.440Z,408.76
2023-05-14T11:10:25.157Z,409.19
2023-05-14T11:15:32.360Z,409.10
2023-05-14T11:20:39.940Z,410.06
2023-05-14T11:25:47.549Z,409.07
2023-05-14T11:30:54.958Z,409.23
2023-05-14T11:36:02.466Z,408.21
2023-05-14T11:41:09.896Z,407.42
2023-05-14T11:46:17.300Z,407.16
2023-05-14T11:51:27.939Z,406.45
2023-05-14T11:56:35.130Z,406.46
2023-05-14T12:01:45.211Z,405.91
2023-05-14T12:06:51.077Z,406.07
2023-05-14T12:11:58.607Z,406.04
2023-05-14T12:17:05.946Z,406.72
2023-05-14T12:22:13.210Z,407.08
2023-05-14T12:27:20.718Z,407.47
2023-05-14T12:32:32.277Z,408.26
2023-05-14T12:37:56.269Z,408.63
2023-05-14T12:43:03.992Z,409.17
2023-05-14T12:48:11.337Z,409.27
2023-05-14T12:53:18.644Z,409.45
2023-05-14T12:58:29.108Z,409.61
2023-05-14T13:03:40.098Z,409.66
2023-05-14T13:08:50.823Z,409.70
2023-05-14T13:13:58.196Z,409.51
2023-05-14T13:19:05.547Z,409.69
2023-05-14T13:24:12.954Z,410.40
2023-05-14T13:29:23.103Z,410.72
2023-05-14T13:34:29.635Z,411.12
2023-05-14T13:39:37.011Z,411.72
2023-05-14T13:44:44.383Z,412.26
2023-05-14T13:49:51.653Z,411.76
2023-05-14T13:54:59.020Z,411.63
2023-05-14T14:00:06.590Z,411.50
2023-05-14T14:05:14.061Z,411.67
2023-05-14T14:10:21.227Z,411.48
2023-05-14T14:15:28.774Z,411.76
2023-05-14T14:20:39.097Z,412.21
2023-05-14T14:25:44.616Z,412.74
2023-05-14T14:30:53.301Z,413.34
2023-05-14T14:36:06.818Z,413.56
2023-05-14T14:41:14.215Z,413.10
2023-05-14T14:46:24.317Z,413.41
2023-05-14T14:51:31.825Z,413.73
2023-05-14T14:56:39.449Z,413.68
2023-05-14T15:01:51.717Z,413.82
2023-05-14T15:06:59.308Z,413.60
2023-05-14T15:12:15.236Z,414.17
2023-05-14T15:17:23.251Z,414.21
2023-05-14T15:22:37.238Z,414.72
2023-05-14T15:27:51.151Z,415.30
2023-05-14T15:33:03.056Z,415.07
2023-05-14T15:38:14.273Z,414.91
2023-05-14T15:43:34.047Z,414.54
2023-05-14T15:48:45.433Z,414.55
2023-05-14T15:54:02.189Z,414.87
2023-05-14T15:59:13.289Z,414.39
2023-05-14T16:04:25.133Z,413.99
2023-05-14T16:09:41.634Z,414.64
2023-05-14T16:16:08.102Z,414.52
2023-05-14T16:20:17.351Z,414.79
2023-05-14T16:25:29.726Z,414.74
2023-05-14T16:30:47.299Z,414.96
2023-05-14T16:36:30.450Z,415.50
2023-05-14T16:41:40.348Z,415.20
2023-05-14T16:46:54.091Z,415.20
2023-05-14T16:52:17.201Z,415.78
2023-05-14T16:57:33.058Z,415.76
2023-05-14T17:02:46.112Z,415.83
2023-05-14T17:08:03.263Z,415.63
2023-05-14T17:13:10.128Z,415.73
2023-05-14T17:19:17.176Z,415.72
2023-05-14T17:24:20.495Z,415.95
2023-05-14T17:29:35.358Z,414.95
2023-05-14T17:34:56.997Z,414.39
2023-05-14T17:40:24.789Z,414.24
2023-05-14T17:45:18.611Z,414.25
2023-05-14T17:50:35.366Z,414.03
2023-05-14T17:55:47.226Z,414.32
2023-05-14T18:00:58.616Z,413.89
2023-05-14T18:06:35.517Z,412.86
2023-05-14T18:11:33.362Z,411.82
2023-05-14T18:16:45.110Z,410.58
2023-05-14T18:22:31.408Z,409.63
2023-05-14T18:27:40.321Z,409.15
2023-05-14T18:32:57.136Z,408.50
2023-05-14T18:38:07.039Z,408.26
2023-05-14T18:43:15.894Z,407.38
2023-05-14T18:48:35.989Z,406.51
2023-05-14T18:53:37.193Z,405.77
2023-05-14T18:58:45.055Z,405.53
2023-05-14T19:03:56.346Z,406.12
2023-05-14T19:09:06.141Z,404.18
2023-05-14T19:14:19.986Z,403.29
2023-05-14T19:19:32.842Z,403.46
2023-05-14T19:24:40.817Z,403.70
2023-05-14T19:29:51.964Z,404.25
2023-05-14T19:34:59.935Z,403.31
2023-05-14T19:40:07.992Z,402.68
2023-05-14T19:45:20.214Z,402.13
2023-05-14T19:50:30.673Z,402.35
2023-05-14T19:55:41.945Z,402.95
2023-05-14T20:00:54.125Z,403.36
2023-05-14T20:06:06.087Z,403.12
2023-05-14T20:11:27.218Z,402.71
2023-05-14T20:17:25.429Z,402.69
2023-05-14T20:22:41.107Z,402.50
2023-05-14T20:28:52.315Z,402.42
2023-05-14T20:33:37.516Z,402.91
2023-05-14T20:39:15.453Z,403.60
2023-05-14T20:44:11.363Z,404.58
2023-05-14T20:50:00.345Z,404.63
2023-05-14T20:56:50.037Z,404.55
2023-05-14T21:02:41.286Z,403.96
2023-05-14T21:08:06.932Z,403.77
2023-05-14T21:13:44.719Z,403.76
2023-05-14T21:19:17.452Z,403.76
2023-05-14T21:24:16.477Z,404.67
2023-05-14T21:29:38.289Z,405.45
2023-05-14T21:35:03.730Z,404.97
2023-05-14T21:40:20.190Z,404.60
2023-05-14T21:45:33.918Z,404.89
2023-05-14T21:50:41.495Z,405.04
2023-05-14T21:55:55.283Z,405.05
2023-05-14T22:01:02.846Z,405.41
2023-05-14T22:06:25.135Z,405.47
2023-05-14T22:11:32.552Z,405.51
2023-05-14T22:16:39.979Z,405.24
2023-05-14T22:21:47.711Z,405.35
2023-05-14T22:26:55.299Z,405.55
2023-05-14T22:32:24.265Z,405.57
2023-05-14T22:37:19.364Z,405.67
2023-05-14T22:42:32.007Z,405.92
2023-05-14T22:47:39.701Z,405.87
2023-05-14T22:53:08.626Z,406.16
2023-05-14T22:58:00.487Z,406.37
2023-05-14T23:03:48.079Z,405.87
2023-05-14T23:10:15.634Z,406.21
2023-05-14T23:24:04.504Z,406.61
2023-05-14T23:40:10.114Z,407.43
2023-05-14T23:44:29.917Z,408.13
2023-05-14T23:57:07.672Z,408.46
